Aérodrome :
LOGIN :

S'inscrire | Disclaimer

   EN    FR    IT 

 










Légende :    VFR   VFR Marginal   IFR   IFR Intensif   IFR Très Intensif
Visi : 
Plafond : 
>= 8 km
>= 3000ft
5 à 8 km
1000 à 3000 ft
1500m à 5 km
500 à 1000 ft
800 à 1500m
200 à 500 ft
< 800m
< 200 ft
Symboles :   Orages  Brouillard  Fortes neiges  Fortes précipitations  Vent > 20 kt
SIGMETs :   Divers  Orages  Givrage  Turbulence  Onde Orograph.  Cendres Volcan.






- Altitude de l'aérodrome : 885 ft
- Code IATA : BAS


LFSB - Bale-Mulhouse

DERNIER METAR :
  • 162130Z AUTO 33003KT 9999 FEW014 19/15 Q1010 TEMPO 26013G23KT BKN080TCU

METARs EXPIRÉS :
  • 162100Z AUTO 32003KT CAVOK 19/14 Q1010 NOSIG
  • 162030Z AUTO 29003KT 250V330 CAVOK 18/15 Q1009 NOSIG
  • 162000Z AUTO VRB02KT CAVOK 19/16 Q1009 NOSIG
  • 161930Z AUTO VRB02KT CAVOK 20/15 Q1009 NOSIG
  • 161900Z AUTO VRB03KT CAVOK 22/15 Q1009 NOSIG

TAF AMD TAF LFSB
Valide du 16 à 18h jusqu'au 17 à 18h UTC


161850Z 1618/1718 VRB04KT CAVOK
TEMPO 1623/1706 26013G23KT -SHRA BKN080TCU
PROB30
TEMPO 1701/1706 4000 TSRA SCT070CB
BECMG 1708/1710 30008KT
PROB40
TEMPO 1709/1712 30010G20KT
TEMPO 1716/1718 FEW080CB BKN100
Météo : +33 3 89 90 31 11



MET'MAP, la Météo Aéronautique d'un coup d'oeil ! - Copyright ORBIFLY Décembre 2007 - Disclaimer

ORBIFLY MET'MAP TEAM :

Programmation & Développement : Alexandra Zaïnal
Sur une idée originale de : Baudouin d'Aumeries
Soutien technique & logistique : Manuel Goepfert
Assistance : Marc-Olivier Méhu




SOURCES & CREDITS :

   NOAA